Time;durP1;ratioP1;P1;durP2;ratioP2;P2;SDS_P1;SDS_P2;PMS_P1;PMS_P2;Temp;Humidity;BMP_temperature;BMP_pressure;BME280_temperature;BME280_humidity;BME280_pressure;Samples;Min_cycle;Max_cycle;Signal;HPM_P1;HPM_P2
2022/03/19 00:01:32;;;;;;;;;;;7.70;99.90;;;;;;5029493;28;20052;-84
2022/03/19 00:03:58;;;;;;;;;;;7.70;99.90;;;;;;5037389;28;19924;-84
2022/03/19 00:06:27;;;;;;;;;;;7.70;99.90;;;;;;5020317;28;19932;-84
2022/03/19 00:08:54;;;;;;;;;;;7.70;99.90;;;;;;5022974;28;19999;-83
2022/03/19 00:11:23;;;;;;;;;;;7.60;99.90;;;;;;5012366;28;20361;-83
2022/03/19 00:13:49;;;;;;;;;;;7.60;99.90;;;;;;5030276;28;19925;-84
2022/03/19 00:16:16;;;;;;;;;;;7.60;99.90;;;;;;5014447;28;20036;-84
2022/03/19 00:18:43;;;;;;;;;;;7.50;99.90;;;;;;5025493;28;19925;-83
2022/03/19 00:21:09;;;;;;;;;;;7.50;99.90;;;;;;5013768;28;19925;-84
2022/03/19 00:23:37;;;;;;;;;;;7.50;99.90;;;;;;5019662;28;19933;-84
2022/03/19 00:26:04;;;;;;;;;;;7.40;99.90;;;;;;5023084;28;19932;-84
2022/03/19 00:28:32;;;;;;;;;;;7.30;99.90;;;;;;5021823;28;20376;-84
2022/03/19 00:30:59;;;;;;;;;;;7.30;99.90;;;;;;5018192;28;19925;-85
2022/03/19 00:33:26;;;;;;;;;;;7.30;99.90;;;;;;5016239;28;19921;-84
2022/03/19 00:35:53;;;;;;;;;;;7.20;99.90;;;;;;5022847;28;19929;-84
2022/03/19 00:38:19;;;;;;;;;;;7.20;99.90;;;;;;5018510;28;19951;-84
2022/03/19 00:40:49;;;;;;;;;;;7.10;99.90;;;;;;5024258;28;20367;-84
2022/03/19 00:43:16;;;;;;;;;;;7.00;99.90;;;;;;5028587;28;19920;-84
2022/03/19 00:45:43;;;;;;;;;;;7.00;99.90;;;;;;4997659;28;19988;-84
2022/03/19 00:48:10;;;;;;;;;;;6.90;99.90;;;;;;5022793;28;19925;-84
2022/03/19 00:50:36;;;;;;;;;;;6.90;99.90;;;;;;5009702;28;19932;-83
2022/03/19 00:53:03;;;;;;;;;;;7.30;99.90;;;;;;5033354;28;19931;-84
2022/03/19 00:55:30;;;;;;;;;;;6.70;99.90;;;;;;5027931;28;20048;-85
2022/03/19 00:57:58;;;;;;;;;;;6.70;99.90;;;;;;5021450;28;20212;-84
2022/03/19 01:00:26;;;;;;;;;;;6.70;99.90;;;;;;5027511;28;19924;-84
2022/03/19 01:02:54;;;;;;;;;;;6.60;99.90;;;;;;5022269;28;20624;-84
2022/03/19 01:05:21;;;;;;;;;;;6.60;99.90;;;;;;5022742;28;19925;-84
2022/03/19 01:07:48;;;;;;;;;;;6.60;99.90;;;;;;5020595;28;20024;-84
2022/03/19 01:10:16;;;;;;;;;;;6.50;99.90;;;;;;5022960;28;19929;-84
2022/03/19 01:12:43;;;;;;;;;;;6.50;99.90;;;;;;5017176;28;19929;-84
2022/03/19 01:15:11;;;;;;;;;;;6.50;99.90;;;;;;5024069;28;19929;-84
2022/03/19 01:17:38;;;;;;;;;;;6.50;99.90;;;;;;5018663;28;19968;-84
2022/03/19 01:20:06;;;;;;;;;;;6.50;99.90;;;;;;5020185;28;20397;-83
2022/03/19 01:22:33;;;;;;;;;;;6.50;99.90;;;;;;5007709;28;19936;-84
2022/03/19 01:25:04;;;;;;;;;;;6.50;99.90;;;;;;5021509;28;20001;-85
2022/03/19 01:27:31;;;;;;;;;;;6.40;99.90;;;;;;5021978;28;19935;-84
2022/03/19 01:30:01;;;;;;;;;;;6.40;99.90;;;;;;5033600;28;20503;-85
2022/03/19 01:32:30;;;;;;;;;;;6.40;99.90;;;;;;5028908;28;19968;-84
2022/03/19 01:34:56;;;;;;;;;;;6.40;99.90;;;;;;5026745;28;20008;-85
2022/03/19 01:37:23;;;;;;;;;;;6.40;99.90;;;;;;5021972;28;20527;-84
2022/03/19 01:39:55;;;;;;;;;;;6.30;99.90;;;;;;5030777;28;20514;-85
2022/03/19 01:42:25;;;;;;;;;;;6.40;99.90;;;;;;5019176;28;19932;-85
2022/03/19 01:44:52;;;;;;;;;;;6.20;99.90;;;;;;5030087;28;19925;-85
2022/03/19 01:47:18;;;;;;;;;;;6.20;99.90;;;;;;5022730;28;19929;-84
2022/03/19 01:49:47;;;;;;;;;;;6.20;99.90;;;;;;5012371;28;19988;-84
2022/03/19 01:52:14;;;;;;;;;;;6.10;99.90;;;;;;5020718;28;19948;-85
2022/03/19 01:54:43;;;;;;;;;;;6.10;99.90;;;;;;5041988;28;19909;-85
2022/03/19 01:57:10;;;;;;;;;;;6.10;99.90;;;;;;5025251;28;19925;-86
2022/03/19 01:59:38;;;;;;;;;;;6.70;99.90;;;;;;5021625;28;20039;-85
2022/03/19 02:02:06;;;;;;;;;;;6.10;99.90;;;;;;5030280;28;19925;-84
2022/03/19 02:04:35;;;;;;;;;;;6.10;99.90;;;;;;5030095;28;20008;-84
2022/03/19 02:07:04;;;;;;;;;;;6.00;99.90;;;;;;5027526;28;19921;-84
2022/03/19 02:09:32;;;;;;;;;;;6.00;99.90;;;;;;5033894;28;19941;-84
2022/03/19 02:11:59;;;;;;;;;;;6.00;99.90;;;;;;5023719;28;19949;-84
2022/03/19 02:14:26;;;;;;;;;;;6.20;99.90;;;;;;5013982;28;19932;-85
2022/03/19 02:16:53;;;;;;;;;;;6.00;99.90;;;;;;5040507;28;19955;-84
2022/03/19 02:19:20;;;;;;;;;;;6.00;99.90;;;;;;5024161;28;19921;-84
2022/03/19 02:21:51;;;;;;;;;;;6.00;99.90;;;;;;5036159;28;19929;-82
2022/03/19 02:27:04;;;;;;;;;;;6.00;99.90;;;;;;5028901;28;19933;-84
2022/03/19 02:29:31;;;;;;;;;;;5.90;99.90;;;;;;5021292;28;19936;-84
2022/03/19 02:31:58;;;;;;;;;;;;;;;;;;5028480;28;19921;-84
2022/03/19 02:34:25;;;;;;;;;;;6.00;99.90;;;;;;5020262;28;19925;-84
2022/03/19 02:36:52;;;;;;;;;;;5.90;99.90;;;;;;5009187;28;19925;-84
2022/03/19 02:39:21;;;;;;;;;;;5.90;99.90;;;;;;5018840;28;19952;-84
2022/03/19 02:41:49;;;;;;;;;;;6.00;99.90;;;;;;5025298;28;19931;-84
2022/03/19 02:44:16;;;;;;;;;;;6.00;99.90;;;;;;5023546;28;20007;-83
2022/03/19 02:46:44;;;;;;;;;;;6.00;99.90;;;;;;5031896;28;19994;-84
2022/03/19 02:49:11;;;;;;;;;;;6.00;99.90;;;;;;5032091;28;20039;-84
2022/03/19 02:51:38;;;;;;;;;;;6.00;99.90;;;;;;5019190;28;19934;-83
2022/03/19 02:54:07;;;;;;;;;;;6.00;99.90;;;;;;5040813;28;19959;-83
2022/03/19 02:56:35;;;;;;;;;;;6.00;99.90;;;;;;5023877;28;20092;-83
2022/03/19 02:59:05;;;;;;;;;;;6.00;99.90;;;;;;5021409;28;19928;-83
2022/03/19 03:01:32;;;;;;;;;;;6.00;99.90;;;;;;5028081;28;20023;-84
2022/03/19 03:03:59;;;;;;;;;;;6.00;99.90;;;;;;5014447;28;19928;-84
2022/03/19 03:06:25;;;;;;;;;;;6.00;99.90;;;;;;5027279;28;19924;-84
2022/03/19 03:08:52;;;;;;;;;;;6.00;99.90;;;;;;5034272;28;19988;-84
2022/03/19 03:11:19;;;;;;;;;;;7.00;99.90;;;;;;5034979;28;19924;-84
2022/03/19 03:13:47;;;;;;;;;;;6.00;99.90;;;;;;5008964;28;19980;-83
2022/03/19 03:16:14;;;;;;;;;;;6.40;99.90;;;;;;5037368;28;19964;-85
2022/03/19 03:18:41;;;;;;;;;;;6.00;99.90;;;;;;5044560;28;19920;-83
2022/03/19 03:21:07;;;;;;;;;;;6.00;99.90;;;;;;5033450;28;19928;-84
2022/03/19 03:23:34;;;;;;;;;;;6.50;99.90;;;;;;5033803;28;19944;-84
2022/03/19 03:26:02;;;;;;;;;;;6.00;99.90;;;;;;5028317;28;19987;-84
2022/03/19 03:28:28;;;;;;;;;;;6.00;99.90;;;;;;5023368;28;19944;-84
2022/03/19 03:30:57;;;;;;;;;;;5.90;99.90;;;;;;5021595;28;19925;-84
2022/03/19 03:33:23;;;;;;;;;;;5.90;99.90;;;;;;5022208;28;19925;-83
2022/03/19 03:35:50;;;;;;;;;;;5.90;99.90;;;;;;5024528;28;19932;-83
2022/03/19 03:38:17;;;;;;;;;;;5.90;99.90;;;;;;5019825;28;20015;-84
2022/03/19 03:40:44;;;;;;;;;;;5.90;99.90;;;;;;5014521;28;20171;-83
2022/03/19 03:43:10;;;;;;;;;;;5.90;99.90;;;;;;5027713;28;19933;-83
2022/03/19 03:45:37;;;;;;;;;;;6.00;99.90;;;;;;5018326;28;19921;-83
2022/03/19 03:48:06;;;;;;;;;;;5.80;99.90;;;;;;5016443;28;19932;-84
2022/03/19 03:50:32;;;;;;;;;;;5.80;99.90;;;;;;5027529;28;19952;-83
2022/03/19 03:52:59;;;;;;;;;;;5.80;99.90;;;;;;5018612;28;19935;-84
2022/03/19 03:55:26;;;;;;;;;;;5.80;99.90;;;;;;5021142;28;20024;-83
2022/03/19 03:57:53;;;;;;;;;;;5.70;99.90;;;;;;5023103;28;19931;-83
2022/03/19 04:00:20;;;;;;;;;;;6.30;99.90;;;;;;5029718;28;19925;-83
2022/03/19 04:02:46;;;;;;;;;;;5.90;99.90;;;;;;5027453;28;19932;-83
2022/03/19 04:05:14;;;;;;;;;;;5.60;99.90;;;;;;5028939;28;19932;-84
2022/03/19 04:07:41;;;;;;;;;;;5.60;99.90;;;;;;5014610;28;19940;-84
2022/03/19 04:10:08;;;;;;;;;;;5.60;99.90;;;;;;5020310;28;19921;-84
2022/03/19 04:12:35;;;;;;;;;;;5.60;99.90;;;;;;5027792;28;19926;-84
2022/03/19 04:15:02;;;;;;;;;;;5.60;99.90;;;;;;5020939;28;19924;-83
2022/03/19 04:17:29;;;;;;;;;;;6.60;99.90;;;;;;5022029;28;19936;-84
2022/03/19 04:19:55;;;;;;;;;;;5.60;99.90;;;;;;5018804;28;19932;-84
2022/03/19 04:22:23;;;;;;;;;;;5.50;99.90;;;;;;5015463;28;19961;-84
2022/03/19 04:24:50;;;;;;;;;;;6.80;99.90;;;;;;5025449;28;19932;-84
2022/03/19 04:27:17;;;;;;;;;;;5.50;99.90;;;;;;5022673;28;19925;-83
2022/03/19 04:29:44;;;;;;;;;;;5.50;99.90;;;;;;5015650;28;20027;-84
2022/03/19 04:32:11;;;;;;;;;;;5.60;99.90;;;;;;5020555;28;19957;-84
2022/03/19 04:34:38;;;;;;;;;;;5.60;99.90;;;;;;5029842;28;19929;-84
2022/03/19 04:37:05;;;;;;;;;;;5.60;99.90;;;;;;5025802;28;19941;-83
2022/03/19 04:39:33;;;;;;;;;;;5.60;99.90;;;;;;5026306;28;19965;-84
2022/03/19 04:42:00;;;;;;;;;;;5.60;99.90;;;;;;5021392;28;19987;-84
2022/03/19 04:44:27;;;;;;;;;;;5.60;99.90;;;;;;5025565;28;19925;-84
2022/03/19 04:46:54;;;;;;;;;;;5.60;99.90;;;;;;5021635;28;20424;-84
2022/03/19 04:49:21;;;;;;;;;;;5.60;99.90;;;;;;5021460;28;19921;-84
2022/03/19 04:51:49;;;;;;;;;;;5.60;99.90;;;;;;5026661;28;19932;-83
2022/03/19 04:54:17;;;;;;;;;;;5.60;99.90;;;;;;5032661;28;19995;-84
2022/03/19 04:56:45;;;;;;;;;;;5.60;99.90;;;;;;5018597;28;19933;-84
2022/03/19 04:59:15;;;;;;;;;;;5.60;99.90;;;;;;5023170;28;20001;-83
2022/03/19 05:01:42;;;;;;;;;;;5.60;99.90;;;;;;5029390;28;20028;-84
2022/03/19 05:04:12;;;;;;;;;;;5.60;99.90;;;;;;5030805;28;19921;-84
2022/03/19 05:06:39;;;;;;;;;;;5.60;99.90;;;;;;5018939;28;20031;-84
2022/03/19 05:11:51;;;;;;;;;;;5.70;99.90;;;;;;5023888;28;19968;-83
2022/03/19 05:14:18;;;;;;;;;;;5.70;99.90;;;;;;5020769;28;19929;-84
2022/03/19 05:16:44;;;;;;;;;;;5.80;99.90;;;;;;5014809;28;20000;-84
2022/03/19 05:19:11;;;;;;;;;;;5.80;99.90;;;;;;5020087;28;20344;-83
2022/03/19 05:21:38;;;;;;;;;;;5.80;99.90;;;;;;5021105;28;19964;-83
2022/03/19 05:24:05;;;;;;;;;;;5.80;99.90;;;;;;5020880;28;19925;-84
2022/03/19 05:26:31;;;;;;;;;;;5.80;99.90;;;;;;5011210;28;19974;-83
2022/03/19 05:28:59;;;;;;;;;;;6.20;99.90;;;;;;5016696;28;19936;-84
2022/03/19 05:31:28;;;;;;;;;;;6.10;99.90;;;;;;5009084;28;19925;-83
2022/03/19 05:36:41;;;;;;;;;;;5.80;99.90;;;;;;4995979;28;20503;-82
2022/03/19 05:39:07;;;;;;;;;;;5.90;99.90;;;;;;5025423;28;19924;-84
2022/03/19 05:41:36;;;;;;;;;;;5.90;99.90;;;;;;5010262;28;19929;-85
2022/03/19 05:44:05;;;;;;;;;;;5.90;99.90;;;;;;5015011;28;19979;-85
2022/03/19 05:46:32;;;;;;;;;;;5.90;99.90;;;;;;5020845;28;20042;-85
2022/03/19 05:48:58;;;;;;;;;;;5.80;99.90;;;;;;5017682;28;19932;-85
2022/03/19 05:51:25;;;;;;;;;;;5.80;99.90;;;;;;5017263;28;19936;-85
2022/03/19 05:53:52;;;;;;;;;;;5.90;99.90;;;;;;5029504;28;19925;-85
2022/03/19 05:56:19;;;;;;;;;;;5.90;99.90;;;;;;5022709;28;19940;-85
2022/03/19 05:58:46;;;;;;;;;;;5.90;99.90;;;;;;5021913;28;20020;-85
2022/03/19 06:01:14;;;;;;;;;;;6.50;99.90;;;;;;5009689;28;19941;-84
2022/03/19 06:03:40;;;;;;;;;;;5.90;99.90;;;;;;5024398;28;20549;-85
2022/03/19 06:06:07;;;;;;;;;;;8.00;99.90;;;;;;5029801;28;19994;-85
2022/03/19 06:08:34;;;;;;;;;;;5.90;99.90;;;;;;5024344;28;20276;-85
2022/03/19 06:11:05;;;;;;;;;;;5.90;99.90;;;;;;5024242;28;19921;-84
2022/03/19 06:13:32;;;;;;;;;;;5.90;99.90;;;;;;5026286;28;19929;-84
2022/03/19 06:15:58;;;;;;;;;;;6.10;99.90;;;;;;5024810;28;19928;-85
2022/03/19 06:18:27;;;;;;;;;;;6.30;99.90;;;;;;5035684;28;19936;-87
2022/03/19 06:20:56;;;;;;;;;;;6.60;99.90;;;;;;5038992;28;19932;-87
2022/03/19 06:23:22;;;;;;;;;;;6.90;99.90;;;;;;5052425;28;19921;-84
2022/03/19 06:25:49;;;;;;;;;;;7.50;99.90;;;;;;5024211;28;20024;-85
2022/03/19 06:28:16;;;;;;;;;;;8.00;99.90;;;;;;5022474;28;19949;-84
2022/03/19 06:30:43;;;;;;;;;;;8.70;99.90;;;;;;5017333;28;19932;-84
2022/03/19 06:33:11;;;;;;;;;;;9.40;99.90;;;;;;5028123;28;19921;-84
2022/03/19 06:38:24;;;;;;;;;;;10.90;99.90;;;;;;5030581;28;20139;-84
2022/03/19 06:40:51;;;;;;;;;;;11.50;99.90;;;;;;5013344;28;19933;-85
2022/03/19 06:43:18;;;;;;;;;;;12.00;99.90;;;;;;5020202;28;19937;-84
2022/03/19 06:45:44;;;;;;;;;;;12.40;99.90;;;;;;5021711;28;19934;-84
2022/03/19 06:48:11;;;;;;;;;;;12.70;99.90;;;;;;5011986;28;19929;-85
2022/03/19 06:50:40;;;;;;;;;;;13.00;99.90;;;;;;5025444;28;20484;-84
2022/03/19 06:53:06;;;;;;;;;;;13.20;99.90;;;;;;5013336;28;20023;-86
2022/03/19 06:55:33;;;;;;;;;;;13.20;99.90;;;;;;5020222;28;20008;-86
2022/03/19 06:58:00;;;;;;;;;;;13.40;99.90;;;;;;5014412;28;19973;-86
2022/03/19 07:00:27;;;;;;;;;;;13.60;99.90;;;;;;5026524;28;20005;-84
2022/03/19 07:02:55;;;;;;;;;;;13.70;99.90;;;;;;5007501;28;19927;-84
2022/03/19 07:05:23;;;;;;;;;;;13.80;99.90;;;;;;5030522;28;20265;-85
2022/03/19 07:07:51;;;;;;;;;;;13.90;99.90;;;;;;5005345;28;20020;-85
2022/03/19 07:10:19;;;;;;;;;;;14.20;99.90;;;;;;5018068;28;19951;-85
2022/03/19 07:12:46;;;;;;;;;;;14.90;99.90;;;;;;5021895;28;19921;-84
2022/03/19 07:15:14;;;;;;;;;;;14.90;99.90;;;;;;5011940;28;19940;-84
2022/03/19 07:17:43;;;;;;;;;;;15.00;99.90;;;;;;5033178;28;19925;-85
2022/03/19 07:20:10;;;;;;;;;;;15.00;99.90;;;;;;5052996;28;19955;-85
2022/03/19 07:22:47;;;;;;;;;;;15.00;99.90;;;;;;5055197;28;20032;-84
2022/03/19 07:25:16;;;;;;;;;;;15.00;99.90;;;;;;5052227;28;19946;-86
2022/03/19 07:27:52;;;;;;;;;;;15.10;99.90;;;;;;5036740;28;19957;-86
2022/03/19 07:30:19;;;;;;;;;;;14.90;99.90;;;;;;5036473;28;19917;-86
2022/03/19 07:32:47;;;;;;;;;;;15.00;99.90;;;;;;5020023;28;19921;-85
2022/03/19 07:35:14;;;;;;;;;;;15.10;99.90;;;;;;5037258;28;19977;-87
2022/03/19 07:37:41;;;;;;;;;;;15.30;99.90;;;;;;5037597;28;19910;-86
2022/03/19 07:40:09;;;;;;;;;;;15.40;99.90;;;;;;5037626;28;19933;-87
2022/03/19 07:42:36;;;;;;;;;;;15.50;99.90;;;;;;5036094;28;19909;-87
2022/03/19 07:45:23;;;;;;;;;;;15.40;99.90;;;;;;5041611;28;19956;-87
2022/03/19 07:48:03;;;;;;;;;;;15.20;99.90;;;;;;5056187;28;19921;-89
2022/03/19 07:50:30;;;;;;;;;;;15.30;99.90;;;;;;5056371;28;19909;-87
2022/03/19 07:52:58;;;;;;;;;;;15.40;99.90;;;;;;5055963;28;19972;-89
2022/03/19 07:55:26;;;;;;;;;;;15.50;99.90;;;;;;5055254;28;19921;-88
2022/03/19 07:57:55;;;;;;;;;;;15.00;99.90;;;;;;5048282;28;19909;-87
2022/03/19 08:00:22;;;;;;;;;;;14.80;99.90;;;;;;5016914;28;19992;-88
2022/03/19 08:02:51;;;;;;;;;;;14.60;99.90;;;;;;5023651;28;20427;-87
2022/03/19 08:05:17;;;;;;;;;;;14.90;99.90;;;;;;5026933;28;19952;-87
2022/03/19 08:07:44;;;;;;;;;;;15.00;99.90;;;;;;5015020;28;20210;-86
2022/03/19 08:10:12;;;;;;;;;;;16.40;99.90;;;;;;5023976;28;19943;-87
2022/03/19 08:12:39;;;;;;;;;;;14.30;99.90;;;;;;5008585;28;19932;-86
2022/03/19 08:15:08;;;;;;;;;;;14.30;99.90;;;;;;5020697;28;20032;-86
2022/03/19 08:17:36;;;;;;;;;;;14.00;99.90;;;;;;5018584;28;19921;-86
2022/03/19 08:20:04;;;;;;;;;;;13.90;99.90;;;;;;5006266;28;19921;-86
2022/03/19 08:22:30;;;;;;;;;;;13.90;99.90;;;;;;5016994;28;19925;-86
2022/03/19 08:24:58;;;;;;;;;;;13.90;99.90;;;;;;5020846;28;20016;-87
2022/03/19 08:27:25;;;;;;;;;;;13.90;99.90;;;;;;5012019;28;20385;-87
2022/03/19 08:29:53;;;;;;;;;;;13.70;99.90;;;;;;5025978;28;20489;-85
2022/03/19 08:32:22;;;;;;;;;;;13.80;99.90;;;;;;5010268;28;19929;-85
2022/03/19 08:34:49;;;;;;;;;;;13.90;99.90;;;;;;5011187;28;19933;-85
2022/03/19 08:37:16;;;;;;;;;;;14.10;99.90;;;;;;5021488;28;19921;-86
2022/03/19 08:42:28;;;;;;;;;;;14.00;99.90;;;;;;5029998;28;19923;-86
2022/03/19 08:44:56;;;;;;;;;;;13.80;99.90;;;;;;5006371;28;19925;-86
2022/03/19 08:47:24;;;;;;;;;;;13.50;99.90;;;;;;5025075;28;19925;-86
2022/03/19 08:49:50;;;;;;;;;;;13.60;99.90;;;;;;5030080;28;19913;-88
2022/03/19 08:52:17;;;;;;;;;;;13.50;99.90;;;;;;5041259;28;19925;-88
2022/03/19 08:54:44;;;;;;;;;;;13.50;99.90;;;;;;5041471;28;19909;-85
2022/03/19 08:57:11;;;;;;;;;;;13.70;99.90;;;;;;5045741;28;20002;-86
2022/03/19 08:59:38;;;;;;;;;;;13.90;99.90;;;;;;5021308;28;19951;-86
2022/03/19 09:02:05;;;;;;;;;;;14.10;99.90;;;;;;5031858;28;19943;-85
2022/03/19 09:04:33;;;;;;;;;;;13.70;99.90;;;;;;5021744;28;19921;-85
2022/03/19 09:06:59;;;;;;;;;;;13.60;99.90;;;;;;5031889;28;19983;-87
2022/03/19 09:09:26;;;;;;;;;;;13.50;99.90;;;;;;5023366;28;19925;-88
2022/03/19 09:11:54;;;;;;;;;;;13.30;99.90;;;;;;5031752;28;19925;-85
2022/03/19 09:14:22;;;;;;;;;;;13.10;99.90;;;;;;5027668;28;20018;-85
2022/03/19 09:16:49;;;;;;;;;;;13.00;99.90;;;;;;5016126;28;19925;-86
2022/03/19 09:19:15;;;;;;;;;;;12.90;99.90;;;;;;5010344;28;20020;-86
2022/03/19 09:21:43;;;;;;;;;;;13.10;99.90;;;;;;5018053;28;19922;-84
2022/03/19 09:24:10;;;;;;;;;;;13.00;99.90;;;;;;5022120;28;19921;-85
2022/03/19 09:26:37;;;;;;;;;;;13.10;99.90;;;;;;5002265;28;19925;-85
2022/03/19 09:29:04;;;;;;;;;;;13.00;99.90;;;;;;5029360;28;19932;-85
2022/03/19 09:31:31;;;;;;;;;;;12.80;99.90;;;;;;5016154;28;19971;-87
2022/03/19 09:33:58;;;;;;;;;;;12.40;99.90;;;;;;5019261;28;19932;-85
2022/03/19 09:36:25;;;;;;;;;;;12.40;99.90;;;;;;5030268;28;20048;-84
2022/03/19 09:38:53;;;;;;;;;;;12.10;99.90;;;;;;5016078;28;19964;-85
2022/03/19 09:41:20;;;;;;;;;;;12.00;99.90;;;;;;5036001;28;19970;-85
2022/03/19 09:43:47;;;;;;;;;;;11.90;99.90;;;;;;5028232;28;19922;-85
2022/03/19 09:46:14;;;;;;;;;;;11.90;99.90;;;;;;5029867;28;20353;-85
2022/03/19 09:48:40;;;;;;;;;;;11.80;99.90;;;;;;5020342;28;19922;-85
2022/03/19 09:51:09;;;;;;;;;;;11.80;99.90;;;;;;5018527;28;19963;-87
2022/03/19 09:53:36;;;;;;;;;;;11.80;99.90;;;;;;5024155;28;20186;-86
2022/03/19 09:56:10;;;;;;;;;;;11.70;99.90;;;;;;5022387;28;19926;-85
2022/03/19 09:58:37;;;;;;;;;;;11.70;99.90;;;;;;5026826;28;19921;-85
2022/03/19 10:01:04;;;;;;;;;;;11.70;99.90;;;;;;5024507;28;19940;-85
2022/03/19 10:03:33;;;;;;;;;;;11.70;99.90;;;;;;5009860;28;19933;-85
2022/03/19 10:08:54;;;;;;;;;;;11.80;99.90;;;;;;5023063;28;19947;-86
2022/03/19 10:11:22;;;;;;;;;;;11.90;99.90;;;;;;5020419;28;19932;-85
2022/03/19 10:13:50;;;;;;;;;;;12.20;99.90;;;;;;5025566;28;20012;-86
2022/03/19 10:16:19;;;;;;;;;;;12.30;99.90;;;;;;5024353;28;19924;-87
2022/03/19 10:18:54;;;;;;;;;;;12.30;99.90;;;;;;5020459;28;19925;-86
2022/03/19 10:21:20;;;;;;;;;;;12.30;99.90;;;;;;5021868;28;19921;-85
2022/03/19 10:23:47;;;;;;;;;;;11.60;99.90;;;;;;5031071;28;20130;-86
2022/03/19 10:26:25;;;;;;;;;;;12.20;99.90;;;;;;5002905;28;19922;-86
2022/03/19 10:29:00;;;;;;;;;;;12.20;99.90;;;;;;5025309;28;19920;-85
2022/03/19 10:31:34;;;;;;;;;;;12.30;99.90;;;;;;5019634;28;19925;-85
2022/03/19 10:34:01;;;;;;;;;;;12.40;99.90;;;;;;5023587;28;19933;-85
2022/03/19 10:36:31;;;;;;;;;;;12.50;99.60;;;;;;5017356;28;19925;-86
2022/03/19 10:38:58;;;;;;;;;;;12.50;98.70;;;;;;5027748;28;19921;-86
2022/03/19 10:41:27;;;;;;;;;;;12.50;98.80;;;;;;5018301;28;19933;-85
2022/03/19 10:43:54;;;;;;;;;;;12.60;98.00;;;;;;5034128;28;19985;-85
2022/03/19 10:46:20;;;;;;;;;;;12.70;98.20;;;;;;5030468;28;20008;-85
2022/03/19 10:48:52;;;;;;;;;;;12.90;99.00;;;;;;5024257;28;19988;-85
2022/03/19 10:51:20;;;;;;;;;;;13.10;97.50;;;;;;5032842;28;19925;-85
2022/03/19 10:53:48;;;;;;;;;;;13.10;95.30;;;;;;5027855;28;20634;-86
2022/03/19 10:56:15;;;;;;;;;;;13.10;95.60;;;;;;5037035;28;19925;-85
2022/03/19 10:58:43;;;;;;;;;;;13.20;94.70;;;;;;5026800;28;20503;-86
2022/03/19 11:01:12;;;;;;;;;;;13.20;93.60;;;;;;5001439;28;19971;-87
2022/03/19 11:03:40;;;;;;;;;;;13.10;91.80;;;;;;5027060;28;20607;-85
2022/03/19 11:06:07;;;;;;;;;;;13.00;90.90;;;;;;5033779;28;20640;-85
2022/03/19 11:08:37;;;;;;;;;;;13.00;91.00;;;;;;5034143;28;19921;-84
2022/03/19 11:11:06;;;;;;;;;;;13.00;89.10;;;;;;5009068;28;19925;-86
2022/03/19 11:13:37;;;;;;;;;;;13.10;88.20;;;;;;5027510;28;19937;-87
2022/03/19 11:16:07;;;;;;;;;;;13.20;89.20;;;;;;5006492;28;19983;-86
2022/03/19 11:18:34;;;;;;;;;;;13.40;88.70;;;;;;5011715;28;19929;-85
2022/03/19 11:21:02;;;;;;;;;;;13.50;87.70;;;;;;5026844;28;20031;-87
2022/03/19 11:23:32;;;;;;;;;;;13.60;86.50;;;;;;5014795;28;19976;-87
2022/03/19 11:26:02;;;;;;;;;;;13.60;85.40;;;;;;5029755;28;19952;-87
2022/03/19 11:28:29;;;;;;;;;;;13.70;87.90;;;;;;5015906;28;19925;-87
2022/03/19 11:31:00;;;;;;;;;;;13.80;78.40;;;;;;5034183;28;19967;-87
2022/03/19 11:33:31;;;;;;;;;;;13.70;77.90;;;;;;5025839;28;20004;-87
2022/03/19 11:36:05;;;;;;;;;;;13.60;77.20;;;;;;5025417;28;19929;-86
2022/03/19 11:38:32;;;;;;;;;;;13.60;76.80;;;;;;5026329;28;19928;-86
2022/03/19 11:41:00;;;;;;;;;;;13.70;79.00;;;;;;5033697;28;19921;-88
2022/03/19 11:43:31;;;;;;;;;;;13.90;76.50;;;;;;5024114;28;19931;-86
2022/03/19 11:46:00;;;;;;;;;;;13.90;76.30;;;;;;5034719;28;19931;-86
2022/03/19 11:48:42;;;;;;;;;;;14.10;78.50;;;;;;5015253;28;19997;-86
2022/03/19 11:51:32;;;;;;;;;;;14.30;75.70;;;;;;5018277;28;19937;-85
2022/03/19 11:54:01;;;;;;;;;;;14.30;75.80;;;;;;5022402;28;19972;-85
2022/03/19 11:56:29;;;;;;;;;;;14.30;76.00;;;;;;5023435;28;19975;-84
2022/03/19 11:58:56;;;;;;;;;;;14.30;74.00;;;;;;5027566;28;19950;-85
2022/03/19 12:01:45;;;;;;;;;;;14.30;75.00;;;;;;4998166;28;19975;-85
2022/03/19 12:04:14;;;;;;;;;;;14.60;75.10;;;;;;5003202;28;19996;-87
2022/03/19 12:06:50;;;;;;;;;;;14.70;72.00;;;;;;5029539;28;20023;-85
2022/03/19 12:09:16;;;;;;;;;;;14.60;73.00;;;;;;5031589;28;19955;-85
2022/03/19 12:12:05;;;;;;;;;;;14.60;73.70;;;;;;5021827;28;19922;-85
2022/03/19 12:14:32;;;;;;;;;;;14.60;74.20;;;;;;5029996;28;20313;-85
2022/03/19 12:17:14;;;;;;;;;;;14.70;73.40;;;;;;5008967;28;19936;-85
2022/03/19 12:19:50;;;;;;;;;;;14.60;73.10;;;;;;5000158;28;20397;-86
2022/03/19 12:22:25;;;;;;;;;;;14.40;71.90;;;;;;5024881;28;20024;-86
2022/03/19 12:24:54;;;;;;;;;;;14.40;72.60;;;;;;5028291;28;19936;-85
2022/03/19 12:27:22;;;;;;;;;;;14.40;73.00;;;;;;5019432;28;20020;-85
2022/03/19 12:29:50;;;;;;;;;;;14.40;73.40;;;;;;5021076;28;19925;-85
2022/03/19 12:32:17;;;;;;;;;;;14.50;71.30;;;;;;5027531;28;19932;-85
2022/03/19 12:34:44;;;;;;;;;;;14.40;71.70;;;;;;5023570;28;19932;-85
2022/03/19 12:37:12;;;;;;;;;;;14.40;72.70;;;;;;5021354;28;20340;-85
2022/03/19 12:39:39;;;;;;;;;;;14.30;73.20;;;;;;5018609;28;20020;-85
2022/03/19 12:42:07;;;;;;;;;;;14.40;74.60;;;;;;5028053;28;19978;-85
2022/03/19 12:44:36;;;;;;;;;;;14.50;75.10;;;;;;5018956;28;19931;-84
2022/03/19 12:47:04;;;;;;;;;;;14.60;73.10;;;;;;5034060;28;19921;-85
2022/03/19 12:49:32;;;;;;;;;;;14.60;72.70;;;;;;5022982;28;19930;-85
2022/03/19 12:52:05;;;;;;;;;;;14.50;72.90;;;;;;5011482;28;20025;-86
2022/03/19 12:54:34;;;;;;;;;;;14.60;74.30;;;;;;5016879;28;19921;-85
2022/03/19 12:57:07;;;;;;;;;;;14.80;73.50;;;;;;5028808;28;19933;-85
2022/03/19 12:59:34;;;;;;;;;;;14.80;72.60;;;;;;5023452;28;19995;-85
2022/03/19 13:02:01;;;;;;;;;;;14.90;73.30;;;;;;5017514;28;19929;-84
2022/03/19 13:04:29;;;;;;;;;;;14.90;73.30;;;;;;5020600;28;19921;-85
2022/03/19 13:06:57;;;;;;;;;;;15.10;73.60;;;;;;5020108;28;19929;-85
2022/03/19 13:09:31;;;;;;;;;;;15.10;71.70;;;;;;5004158;28;19925;-85
2022/03/19 13:12:00;;;;;;;;;;;15.20;71.20;;;;;;5012908;28;19929;-85
2022/03/19 13:14:27;;;;;;;;;;;15.20;69.50;;;;;;5017927;28;19921;-85
2022/03/19 13:16:55;;;;;;;;;;;17.10;67.60;;;;;;5021966;28;19949;-86
2022/03/19 13:19:23;;;;;;;;;;;15.10;66.60;;;;;;5028026;28;19929;-84
2022/03/19 13:21:50;;;;;;;;;;;15.10;67.50;;;;;;5023922;28;19925;-85
2022/03/19 13:24:17;;;;;;;;;;;15.00;65.90;;;;;;5019443;28;19955;-85
2022/03/19 13:26:44;;;;;;;;;;;14.90;65.00;;;;;;5033989;28;19921;-84
2022/03/19 13:29:13;;;;;;;;;;;14.90;65.20;;;;;;5032404;28;19963;-85
2022/03/19 13:31:51;;;;;;;;;;;14.80;63.90;;;;;;5022980;28;19959;-83
2022/03/19 13:34:19;;;;;;;;;;;14.90;65.20;;;;;;5025756;28;19940;-85
2022/03/19 13:36:49;;;;;;;;;;;14.90;63.00;;;;;;5016934;28;19945;-85
2022/03/19 13:39:19;;;;;;;;;;;14.80;64.00;;;;;;5003562;28;19922;-84
2022/03/19 13:41:46;;;;;;;;;;;14.80;65.10;;;;;;5024861;28;20005;-84
2022/03/19 13:44:26;;;;;;;;;;;14.80;64.30;;;;;;5027404;28;19931;-84
2022/03/19 13:47:02;;;;;;;;;;;14.80;65.80;;;;;;5026332;28;20016;-85
2022/03/19 13:49:29;;;;;;;;;;;14.90;65.80;;;;;;5021290;28;19925;-85
2022/03/19 13:51:57;;;;;;;;;;;14.90;65.30;;;;;;5009589;28;19925;-85
2022/03/19 13:54:24;;;;;;;;;;;14.90;65.40;;;;;;5006215;28;19925;-84
2022/03/19 13:56:55;;;;;;;;;;;14.90;66.70;;;;;;5026315;28;20031;-85
2022/03/19 13:59:33;;;;;;;;;;;14.80;67.00;;;;;;5014066;28;20401;-85
2022/03/19 14:02:01;;;;;;;;;;;14.90;67.80;;;;;;5031832;28;19979;-85
2022/03/19 14:04:28;;;;;;;;;;;15.00;68.30;;;;;;5037742;28;19955;-86
2022/03/19 14:06:56;;;;;;;;;;;15.10;68.20;;;;;;5017675;28;19964;-85
2022/03/19 14:09:23;;;;;;;;;;;15.20;67.00;;;;;;5020522;28;20728;-84
2022/03/19 14:11:50;;;;;;;;;;;15.10;66.30;;;;;;5027297;28;19924;-87
2022/03/19 14:14:17;;;;;;;;;;;15.10;65.00;;;;;;5006040;28;19921;-84
2022/03/19 14:16:55;;;;;;;;;;;15.00;65.70;;;;;;5013015;28;19960;-85
2022/03/19 14:19:23;;;;;;;;;;;15.00;64.60;;;;;;5005755;28;20029;-85
2022/03/19 14:21:49;;;;;;;;;;;14.90;62.00;;;;;;5019804;28;19968;-84
2022/03/19 14:24:16;;;;;;;;;;;14.80;61.20;;;;;;5019504;28;19943;-85
2022/03/19 14:26:44;;;;;;;;;;;14.70;62.40;;;;;;5028910;28;19925;-84
2022/03/19 14:29:11;;;;;;;;;;;14.70;61.20;;;;;;5012033;28;20508;-84
2022/03/19 14:31:37;;;;;;;;;;;14.60;61.90;;;;;;5018019;28;20031;-83
2022/03/19 14:34:06;;;;;;;;;;;14.50;63.80;;;;;;5030492;28;20345;-83
2022/03/19 14:36:33;;;;;;;;;;;14.60;60.70;;;;;;5004337;28;20259;-83
2022/03/19 14:39:03;;;;;;;;;;;14.50;59.30;;;;;;5004444;28;19921;-84
2022/03/19 14:41:31;;;;;;;;;;;14.50;59.00;;;;;;5023147;28;20503;-83
2022/03/19 14:43:59;;;;;;;;;;;14.60;58.10;;;;;;5020748;28;19932;-84
2022/03/19 14:46:26;;;;;;;;;;;14.50;58.00;;;;;;5021356;28;20456;-82